»·PEaware :: QXE2184 KRNO-KSJC

QXE2184 :: KRNO-KSJC

FLIGHT INFORMATION

Flight Status: Arrived
Operator:
Horizon Air
More flights by this operator :: More flights under this callsign
Pilot: Anonymous 16594 (16594)
Aircraft: DEHAVILLAND DASH 8 400
(DH8D)
More flights by this aircraft type
Origin: KRNO Reno/Tahoe Intl
United States
Destination: KSJC Mineta San Jose Intl
United States
More flights between these airports :: More routes between these airports
Route: +ZEFFR6 DARBI STUBL RAZRR4
File this flight plan on PilotEdge
Remarks:
Altitude:
(Current/Filed)
16,000ft
Speed:
(Current/Filed)
309kts
Departed: 22-Sep-17 10:50 AM
Arrived: 22-Sep-17 11:42 AM
Distance/Time
Traveled:
163nm/0:51
Distance/Time
To Go:
Arrived

Flight Plot

Page will automatically refresh every two minutes.

Flight plan parsing failed; only flown route is shown


Map Options




Map Legend


Flown Route
Filed Route
Departure Airport
Arrival Airport
Navaid (VOR, NDB)
Fix

Horizontal Profiles

Position Reports

Time Latitude Longitude Heading Altitude Ground
Speed
22-Sep-17 10:22 39.505105 -119.773303 0 4422ft 0kts
22-Sep-17 10:23 39.505105 -119.773303 0 4422ft 0kts
22-Sep-17 10:24 39.505105 -119.773303 0 4422ft 0kts
22-Sep-17 10:25 39.505105 -119.773303 0 4422ft 0kts
22-Sep-17 10:26 39.505105 -119.773303 0 4422ft 0kts
22-Sep-17 10:27 39.505105 -119.773303 0 4422ft 0kts
22-Sep-17 10:28 39.505105 -119.773303 0 4422ft 0kts
22-Sep-17 10:29 39.505105 -119.773303 0 4422ft 0kts
22-Sep-17 10:30 39.505105 -119.773303 0 4422ft 0kts
22-Sep-17 10:31 39.505105 -119.773303 0 4422ft 0kts
22-Sep-17 10:32 39.505105 -119.773303 0 4422ft 0kts
22-Sep-17 10:33 39.505105 -119.773303 0 4422ft 0kts
22-Sep-17 10:34 39.505105 -119.773303 0 4422ft 0kts
22-Sep-17 10:35 39.505105 -119.773303 0 4422ft 0kts
22-Sep-17 10:36 39.505105 -119.773303 0 4422ft 0kts
22-Sep-17 10:37 39.505105 -119.773303 0 4422ft 0kts
22-Sep-17 10:38 39.505105 -119.773303 0 4422ft 0kts
22-Sep-17 10:39 39.505105 -119.773303 0 4422ft 0kts
22-Sep-17 10:40 39.505105 -119.773303 0 4422ft 0kts
22-Sep-17 10:41 39.505105 -119.773303 0 4422ft 0kts
22-Sep-17 10:42 39.505105 -119.773303 0 4422ft 0kts
22-Sep-17 10:43 39.504707 -119.773338 11 4422ft 2kts
22-Sep-17 10:44 39.504383 -119.773828 90 4422ft 0kts
22-Sep-17 10:45 39.504383 -119.773828 90 4422ft 0kts
22-Sep-17 10:46 39.504383 -119.773828 90 4422ft 0kts
22-Sep-17 10:47 39.504383 -119.773820 91 4422ft 0kts
22-Sep-17 10:48 39.504382 -119.773769 92 4422ft 5kts
22-Sep-17 10:49 39.506207 -119.771588 0 4422ft 13kts
22-Sep-17 10:50 39.511416 -119.771573 359 4422ft 17kts
22-Sep-17 10:51 39.513559 -119.770841 87 4422ft 0kts
22-Sep-17 10:52 39.513563 -119.770176 90 4422ft 0kts
22-Sep-17 10:53 39.513550 -119.769664 99 4422ft 5kts
22-Sep-17 10:54 39.506244 -119.769207 178 4422ft 111kts
22-Sep-17 10:55 39.463111 -119.767096 179 6505ft 175kts
22-Sep-17 10:56 39.408798 -119.769826 178 9274ft 207kts
22-Sep-17 10:57 39.347912 -119.769427 178 11953ft 234kts
22-Sep-17 10:58 39.280375 -119.768312 178 14133ft 250kts
22-Sep-17 10:59 39.208838 -119.765530 178 15881ft 272kts
22-Sep-17 11:00 39.125174 -119.762345 179 16000ft 326kts
22-Sep-17 11:01 39.030582 -119.758806 179 15993ft 350kts
22-Sep-17 11:02 38.931195 -119.755127 180 16006ft 361kts
22-Sep-17 11:03 38.830947 -119.751336 179 15980ft 361kts
22-Sep-17 11:04 38.732938 -119.747725 179 15928ft 336kts
22-Sep-17 11:05 38.641789 -119.744252 179 15996ft 331kts
22-Sep-17 11:06 38.549458 -119.740763 180 15980ft 332kts
22-Sep-17 11:07 38.457255 -119.737331 179 15997ft 332kts
22-Sep-17 11:08 38.364767 -119.733982 180 15989ft 335kts
22-Sep-17 11:09 38.272705 -119.735476 190 15985ft 330kts
22-Sep-17 11:10 38.181739 -119.755556 191 15981ft 331kts
22-Sep-17 11:11 38.091302 -119.774005 191 15978ft 332kts
22-Sep-17 11:12 38.000539 -119.792397 191 15976ft 331kts
22-Sep-17 11:13 37.908630 -119.810537 192 15975ft 335kts
22-Sep-17 11:14 37.816406 -119.829448 191 15974ft 338kts
22-Sep-17 11:15 37.723477 -119.848180 191 15956ft 339kts
22-Sep-17 11:16 37.630656 -119.866807 192 15971ft 337kts
22-Sep-17 11:17 37.537471 -119.885464 191 15966ft 339kts
22-Sep-17 11:18 37.444695 -119.903885 191 15963ft 339kts
22-Sep-17 11:19 37.351900 -119.922374 191 15960ft 339kts
22-Sep-17 11:20 37.260505 -119.946141 208 15949ft 333kts
22-Sep-17 11:21 37.218432 -120.037752 264 15954ft 309kts
22-Sep-17 11:22 37.206829 -120.144272 265 15950ft 308kts
22-Sep-17 11:23 37.195477 -120.250673 264 15949ft 309kts
22-Sep-17 11:24 37.183903 -120.357604 264 15947ft 309kts
22-Sep-17 11:25 37.172235 -120.464349 264 15945ft 310kts
22-Sep-17 11:26 37.160307 -120.571156 264 15946ft 310kts
22-Sep-17 11:27 37.148350 -120.677914 264 15944ft 309kts
22-Sep-17 11:28 37.136338 -120.784475 265 14692ft 290kts
22-Sep-17 11:29 37.126286 -120.876268 264 13087ft 248kts
22-Sep-17 11:30 37.117386 -120.957460 263 11484ft 227kts
22-Sep-17 11:31 37.109010 -121.033172 262 10075ft 206kts
22-Sep-17 11:32 37.105671 -121.094213 275 9872ft 178kts
22-Sep-17 11:33 37.112229 -121.174353 275 8549ft 267kts
22-Sep-17 11:34 37.119249 -121.263920 274 7948ft 244kts
22-Sep-17 11:35 37.125353 -121.344364 274 7992ft 223kts
22-Sep-17 11:36 37.131363 -121.420441 276 8087ft 216kts
22-Sep-17 11:37 37.140532 -121.500966 277 6927ft 260kts
22-Sep-17 11:38 37.150805 -121.591194 277 5350ft 246kts
22-Sep-17 11:39 37.159183 -121.667149 277 4088ft 193kts
22-Sep-17 11:40 37.176220 -121.722777 316 4053ft 176kts
22-Sep-17 11:41 37.213843 -121.765596 318 3674ft 181kts
22-Sep-17 11:42 37.250224 -121.807185 317 2864ft 190kts
22-Sep-17 11:43 37.289233 -121.849559 319 1873ft 167kts
22-Sep-17 11:44 37.317408 -121.880343 319 1090ft 125kts
22-Sep-17 11:45 37.343465 -121.909042 319 422ft 124kts
22-Sep-17 11:46 37.360664 -121.927774 318 69ft 10kts
22-Sep-17 11:47 37.361941 -121.927910 46 69ft 0kts
22-Sep-17 11:48 37.361941 -121.927910 46 69ft 0kts
22-Sep-17 11:49 37.362366 -121.927332 47 69ft 10kts
22-Sep-17 11:50 37.362894 -121.923896 138 69ft 16kts
22-Sep-17 11:51 37.361127 -121.920647 50 69ft 12kts
22-Sep-17 11:52 37.360645 -121.919679 137 69ft 0kts
22-Sep-17 11:53 37.360645 -121.919678 137 69ft 0kts
22-Sep-17 11:54 37.360645 -121.919678 137 69ft 0kts

Navigation Log

Ident Type
Flight plan parsing failed, navigation log unavailable